createdAt,value
2022-08-10T00:00:35.795Z,2.30
2022-08-10T00:03:02.791Z,1.48
2022-08-10T00:05:42.962Z,2.20
2022-08-10T00:08:11.263Z,1.85
2022-08-10T00:10:49.631Z,1.77
2022-08-10T00:13:16.588Z,1.42
2022-08-10T00:15:52.463Z,1.98
2022-08-10T00:18:34.472Z,2.22
2022-08-10T00:21:05.079Z,1.70
2022-08-10T00:23:32.432Z,1.45
2022-08-10T00:25:59.446Z,1.60
2022-08-10T00:28:26.268Z,1.73
2022-08-10T00:30:53.288Z,1.80
2022-08-10T00:33:21.003Z,1.77
2022-08-10T00:35:48.744Z,1.77
2022-08-10T00:38:15.744Z,1.85
2022-08-10T00:40:42.794Z,2.15
2022-08-10T00:43:09.635Z,2.13
2022-08-10T00:45:37.047Z,1.45
2022-08-10T00:48:04.286Z,1.90
2022-08-10T00:50:31.263Z,1.85
2022-08-10T00:52:58.370Z,2.13
2022-08-10T00:55:25.927Z,2.05
2022-08-10T00:57:55.170Z,2.05
2022-08-10T01:00:23.617Z,1.73
2022-08-10T01:02:50.728Z,2.10
2022-08-10T01:05:20.233Z,1.70
2022-08-10T01:08:06.194Z,2.08
2022-08-10T01:10:38.727Z,1.98
2022-08-10T01:13:30.546Z,1.70
2022-08-10T01:16:03.107Z,1.88
2022-08-10T01:19:01.643Z,2.53
2022-08-10T01:21:57.279Z,1.95
2022-08-10T01:27:31.539Z,1.52
2022-08-10T01:30:05.363Z,2.00
2022-08-10T01:33:31.776Z,1.73
2022-08-10T01:36:19.300Z,1.40
2022-08-10T01:39:03.381Z,1.85
2022-08-10T01:41:45.526Z,1.85
2022-08-10T01:44:23.975Z,1.92
2022-08-10T01:46:57.101Z,1.30
2022-08-10T01:49:26.399Z,1.70
2022-08-10T01:52:00.498Z,1.60
2022-08-10T01:54:30.204Z,2.13
2022-08-10T01:56:59.865Z,1.77
2022-08-10T01:59:39.380Z,1.40
2022-08-10T02:02:11.266Z,1.50
2022-08-10T02:04:42.894Z,1.90
2022-08-10T02:07:14.587Z,2.08
2022-08-10T02:09:48.040Z,2.30
2022-08-10T02:12:20.477Z,2.65
2022-08-10T02:14:55.640Z,2.50
2022-08-10T02:17:59.806Z,2.22
2022-08-10T02:20:25.635Z,1.95
2022-08-10T02:22:57.914Z,2.20
2022-08-10T02:25:42.715Z,1.60
2022-08-10T02:28:29.971Z,2.40
2022-08-10T02:31:06.211Z,1.75
2022-08-10T02:33:37.244Z,2.13
2022-08-10T02:36:08.247Z,2.20
2022-08-10T02:38:58.464Z,1.75
2022-08-10T02:45:13.652Z,2.00
2022-08-10T02:45:26.954Z,2.20
2022-08-10T02:48:00.083Z,2.50
2022-08-10T02:50:29.890Z,1.83
2022-08-10T02:53:55.343Z,2.78
2022-08-10T02:56:08.227Z,1.55
2022-08-10T02:58:44.731Z,1.80
2022-08-10T03:01:17.391Z,1.52
2022-08-10T03:03:50.013Z,2.17
2022-08-10T03:06:23.417Z,2.08
2022-08-10T03:08:51.420Z,1.95
2022-08-10T03:12:36.100Z,2.10
2022-08-10T03:14:12.074Z,2.47
2022-08-10T03:16:41.565Z,2.35
2022-08-10T03:20:35.511Z,3.08
2022-08-10T03:24:33.011Z,2.60
2022-08-10T03:27:01.611Z,2.50
2022-08-10T03:29:29.520Z,2.47
2022-08-10T03:31:57.211Z,2.45
2022-08-10T03:34:33.630Z,3.30
2022-08-10T03:37:01.031Z,2.67
2022-08-10T03:39:28.595Z,3.50
2022-08-10T03:41:59.879Z,2.50
2022-08-10T03:44:30.542Z,2.90
2022-08-10T03:47:00.778Z,3.08
2022-08-10T03:49:30.026Z,2.95
2022-08-10T03:51:58.636Z,3.33
2022-08-10T03:54:26.256Z,2.25
2022-08-10T03:56:53.352Z,3.13
2022-08-10T03:59:21.013Z,3.28
2022-08-10T04:02:46.139Z,1.38
2022-08-10T04:04:37.825Z,3.28
2022-08-10T04:07:05.541Z,2.33
2022-08-10T04:09:54.765Z,1.98
2022-08-10T04:12:21.930Z,3.40
2022-08-10T04:14:50.771Z,3.53
2022-08-10T04:18:02.919Z,3.58
2022-08-10T04:20:24.476Z,3.30
2022-08-10T04:22:53.753Z,3.95
2022-08-10T04:25:22.743Z,2.80
2022-08-10T04:27:50.860Z,3.35
2022-08-10T04:30:18.100Z,3.38
2022-08-10T04:32:48.771Z,3.35
2022-08-10T04:35:19.353Z,3.25
2022-08-10T04:37:48.429Z,2.92
2022-08-10T04:40:29.741Z,3.17
2022-08-10T04:45:50.002Z,3.90
2022-08-10T04:48:40.466Z,4.28
2022-08-10T04:51:07.372Z,3.35
2022-08-10T04:53:34.208Z,3.88
2022-08-10T04:56:21.378Z,4.47
2022-08-10T04:58:59.267Z,3.33
2022-08-10T05:01:26.358Z,3.72
2022-08-10T05:04:36.676Z,2.22
2022-08-10T05:06:40.230Z,2.25
2022-08-10T05:09:07.081Z,3.22
2022-08-10T05:11:34.131Z,3.45
2022-08-10T05:14:00.939Z,4.47
2022-08-10T05:16:31.993Z,3.17
2022-08-10T05:18:59.484Z,3.97
2022-08-10T05:22:01.460Z,3.97
2022-08-10T05:24:13.335Z,3.80
2022-08-10T05:27:00.681Z,4.30
2022-08-10T05:29:27.038Z,3.15
2022-08-10T05:31:55.083Z,2.92
2022-08-10T05:34:26.700Z,4.47
2022-08-10T05:36:55.386Z,4.05
2022-08-10T05:39:30.330Z,4.00
2022-08-10T05:42:01.378Z,3.42
2022-08-10T05:44:29.890Z,2.58
2022-08-10T05:46:56.992Z,4.57
2022-08-10T05:49:24.361Z,4.05
2022-08-10T05:51:51.832Z,4.57
2022-08-10T05:54:19.091Z,4.32
2022-08-10T05:56:56.491Z,4.45
2022-08-10T06:00:11.041Z,3.78
2022-08-10T06:02:47.799Z,4.25
2022-08-10T06:05:21.160Z,3.65
2022-08-10T06:08:02.332Z,2.78
2022-08-10T06:10:33.027Z,4.18
2022-08-10T06:13:30.004Z,3.85
2022-08-10T06:16:01.138Z,3.92
2022-08-10T06:18:28.663Z,4.82
2022-08-10T06:20:56.228Z,3.22
2022-08-10T06:23:23.452Z,4.80
2022-08-10T06:26:11.097Z,4.43
2022-08-10T06:28:52.996Z,3.53
2022-08-10T06:31:48.925Z,3.28
2022-08-10T06:34:21.090Z,3.47
2022-08-10T06:36:49.065Z,4.20
2022-08-10T06:39:33.104Z,3.70
2022-08-10T06:42:18.323Z,4.18
2022-08-10T06:44:56.989Z,4.72
2022-08-10T06:47:30.088Z,3.92
2022-08-10T06:50:02.699Z,3.47
2022-08-10T06:52:32.813Z,4.50
2022-08-10T06:55:05.205Z,4.28
2022-08-10T06:57:35.742Z,4.32
2022-08-10T07:00:06.936Z,3.70
2022-08-10T07:02:46.265Z,4.40
2022-08-10T07:05:19.792Z,3.95
2022-08-10T07:07:48.244Z,3.90
2022-08-10T07:10:19.373Z,3.50
2022-08-10T07:12:50.569Z,3.75
2022-08-10T07:15:19.432Z,3.60
2022-08-10T07:20:21.608Z,2.80
2022-08-10T07:23:27.413Z,3.67
2022-08-10T07:25:40.111Z,3.60
2022-08-10T07:28:08.477Z,3.42
2022-08-10T07:30:40.787Z,3.03
2022-08-10T07:33:09.519Z,3.60
2022-08-10T07:38:25.903Z,3.10
2022-08-10T07:40:53.903Z,2.50
2022-08-10T07:43:26.876Z,2.53
2022-08-10T07:45:55.585Z,2.17
2022-08-10T07:48:28.897Z,3.50
2022-08-10T07:50:59.461Z,2.75
2022-08-10T07:53:37.289Z,2.60
2022-08-10T07:56:16.918Z,3.00
2022-08-10T07:59:10.001Z,2.95
2022-08-10T08:01:44.360Z,2.67
2022-08-10T08:04:14.615Z,2.92
2022-08-10T08:06:43.023Z,2.20
2022-08-10T08:09:11.120Z,2.85
2022-08-10T08:11:41.392Z,2.60
2022-08-10T08:14:09.074Z,2.90
2022-08-10T08:16:40.476Z,2.92
2022-08-10T08:19:26.987Z,3.00
2022-08-10T08:24:07.659Z,2.60
2022-08-10T08:24:44.718Z,2.30
2022-08-10T08:27:17.391Z,2.30
2022-08-10T08:29:46.974Z,2.35
2022-08-10T08:32:18.212Z,2.55
2022-08-10T08:34:46.187Z,2.83
2022-08-10T08:37:18.801Z,2.83
2022-08-10T08:40:07.923Z,2.97
2022-08-10T08:43:04.877Z,2.38
2022-08-10T08:45:48.145Z,2.53
2022-08-10T08:49:06.042Z,2.45
2022-08-10T08:52:08.285Z,2.10
2022-08-10T08:56:04.703Z,2.42
2022-08-10T08:58:05.849Z,2.13
2022-08-10T09:00:35.625Z,2.08
2022-08-10T09:03:24.993Z,2.20
2022-08-10T09:06:42.224Z,2.25
2022-08-10T09:09:09.379Z,2.40
2022-08-10T09:12:05.944Z,2.25
2022-08-10T09:14:49.198Z,2.70
2022-08-10T09:17:32.691Z,2.25
2022-08-10T09:20:08.511Z,2.38
2022-08-10T09:22:57.146Z,2.30
2022-08-10T09:25:32.332Z,2.10
2022-08-10T09:28:04.033Z,2.50
2022-08-10T09:31:20.772Z,2.30
2022-08-10T09:36:21.604Z,2.70
2022-08-10T09:37:58.725Z,2.30
2022-08-10T09:40:57.151Z,2.40
2022-08-10T09:43:32.052Z,2.58
2022-08-10T09:46:16.514Z,2.50
2022-08-10T09:49:01.263Z,2.65
2022-08-10T09:51:45.831Z,2.50
2022-08-10T09:54:28.350Z,2.22
2022-08-10T09:57:17.971Z,2.20
2022-08-10T10:00:12.735Z,2.10
2022-08-10T10:03:09.310Z,2.10
2022-08-10T10:05:59.622Z,1.92
2022-08-10T10:08:44.445Z,2.00
2022-08-10T10:11:22.632Z,2.45
2022-08-10T10:14:02.959Z,1.58
2022-08-10T10:16:56.716Z,2.00
2022-08-10T10:19:57.741Z,1.55
2022-08-10T10:22:54.419Z,1.73
2022-08-10T10:25:50.948Z,1.75
2022-08-10T10:28:44.473Z,1.65
2022-08-10T10:31:28.484Z,1.60
2022-08-10T10:34:07.341Z,2.15
2022-08-10T10:36:35.534Z,2.10
2022-08-10T10:39:02.962Z,1.90
2022-08-10T10:41:56.354Z,1.77
2022-08-10T10:44:36.887Z,1.92
2022-08-10T10:47:28.793Z,1.80
2022-08-10T10:50:12.907Z,2.13
2022-08-10T10:52:48.792Z,2.10
2022-08-10T10:55:23.127Z,1.92
2022-08-10T10:58:22.458Z,2.08
2022-08-10T11:01:25.854Z,1.67
2022-08-10T11:04:09.199Z,2.42
2022-08-10T11:07:05.070Z,2.17
2022-08-10T11:10:05.048Z,2.60
2022-08-10T11:12:37.162Z,1.90
2022-08-10T11:15:15.976Z,2.22
2022-08-10T11:17:52.369Z,1.88
2022-08-10T11:20:47.108Z,2.20
2022-08-10T11:23:26.113Z,2.28
2022-08-10T11:26:14.088Z,1.98
2022-08-10T11:28:45.742Z,2.50
2022-08-10T11:31:15.884Z,2.50
2022-08-10T11:34:49.139Z,2.03
2022-08-10T11:37:11.921Z,2.10
2022-08-10T11:39:50.145Z,2.40
2022-08-10T11:42:36.317Z,2.28
2022-08-10T11:45:09.523Z,2.55
2022-08-10T11:47:41.173Z,2.03
2022-08-10T11:50:08.155Z,2.38
2022-08-10T11:53:09.641Z,2.38
2022-08-10T11:55:37.728Z,2.20
2022-08-10T11:58:31.071Z,2.10
2022-08-10T12:01:06.213Z,2.17
2022-08-10T12:03:36.119Z,2.22
2022-08-10T12:06:06.176Z,2.20
2022-08-10T12:10:02.024Z,2.13
2022-08-10T12:14:22.804Z,2.00
2022-08-10T12:17:09.021Z,2.10
2022-08-10T12:20:02.344Z,1.90
2022-08-10T12:22:50.413Z,1.92
2022-08-10T12:25:56.987Z,2.30
2022-08-10T12:28:20.605Z,1.77
2022-08-10T12:30:53.105Z,2.00
2022-08-10T12:33:25.263Z,2.00
2022-08-10T12:36:18.301Z,2.00
2022-08-10T12:39:07.315Z,2.20
2022-08-10T12:41:43.911Z,2.30
2022-08-10T12:44:42.345Z,2.08
2022-08-10T12:47:36.203Z,2.10
2022-08-10T12:50:32.934Z,2.25
2022-08-10T12:53:15.244Z,2.15
2022-08-10T12:55:44.004Z,2.00
2022-08-10T12:59:00.247Z,2.00
2022-08-10T13:01:16.474Z,2.33
2022-08-10T13:04:20.955Z,2.10
2022-08-10T13:06:46.569Z,1.95
2022-08-10T13:09:15.692Z,2.00
2022-08-10T13:12:36.582Z,1.95
2022-08-10T13:14:53.195Z,2.00
2022-08-10T13:17:32.313Z,2.08
2022-08-10T13:20:19.671Z,2.10
2022-08-10T13:22:49.703Z,1.92
2022-08-10T13:25:25.669Z,2.45
2022-08-10T13:28:01.085Z,2.00
2022-08-10T13:30:45.868Z,1.90
2022-08-10T13:34:40.599Z,2.00
2022-08-10T13:36:06.692Z,1.90
2022-08-10T13:38:35.243Z,2.33
2022-08-10T13:43:29.128Z,1.98
2022-08-10T13:45:58.160Z,2.10
2022-08-10T13:48:26.886Z,1.38
2022-08-10T13:50:58.534Z,2.17
2022-08-10T13:53:31.860Z,2.13
2022-08-10T13:56:02.281Z,2.00
2022-08-10T13:58:36.929Z,2.10
2022-08-10T14:01:16.830Z,2.45
2022-08-10T14:03:45.816Z,1.92
2022-08-10T14:06:15.575Z,1.90
2022-08-10T14:08:50.555Z,2.40
2022-08-10T14:11:19.305Z,1.92
2022-08-10T14:13:56.384Z,2.00
2022-08-10T14:16:25.216Z,2.00
2022-08-10T14:18:54.945Z,2.00
2022-08-10T14:21:22.218Z,2.10
2022-08-10T14:23:51.971Z,1.98
2022-08-10T14:26:24.863Z,2.00
2022-08-10T14:28:58.122Z,1.80
2022-08-10T14:31:30.427Z,1.75
2022-08-10T14:34:02.408Z,2.00
2022-08-10T14:36:47.423Z,2.22
2022-08-10T14:39:43.827Z,2.35
2022-08-10T14:42:27.301Z,1.77
2022-08-10T14:44:58.710Z,1.88
2022-08-10T14:47:53.520Z,2.10
2022-08-10T14:50:32.612Z,2.20
2022-08-10T14:53:17.433Z,1.90
2022-08-10T14:56:11.025Z,2.20
2022-08-10T14:59:10.008Z,2.13
2022-08-10T15:02:01.514Z,2.00
2022-08-10T15:04:29.143Z,2.10
2022-08-10T15:07:01.256Z,2.10
2022-08-10T15:10:00.406Z,2.20
2022-08-10T15:12:27.185Z,1.90
2022-08-10T15:14:58.725Z,1.95
2022-08-10T15:17:35.117Z,2.20
2022-08-10T15:20:20.878Z,2.00
2022-08-10T15:22:58.961Z,1.90
2022-08-10T15:25:27.491Z,1.80
2022-08-10T15:28:10.593Z,1.70
2022-08-10T15:30:46.215Z,1.60
2022-08-10T15:34:02.696Z,2.10
2022-08-10T15:36:43.313Z,1.85
2022-08-10T15:40:21.940Z,2.00
2022-08-10T15:42:22.867Z,2.00
2022-08-10T15:44:53.519Z,2.10
2022-08-10T15:47:27.812Z,2.20
2022-08-10T15:50:16.304Z,2.13
2022-08-10T15:53:00.930Z,1.63
2022-08-10T15:55:41.581Z,2.78
2022-08-10T15:58:19.784Z,2.20
2022-08-10T16:00:56.155Z,2.00
2022-08-10T16:03:37.078Z,2.22
2022-08-10T16:06:08.967Z,2.20
2022-08-10T16:08:56.263Z,1.83
2022-08-10T16:11:42.034Z,2.35
2022-08-10T16:14:14.632Z,1.88
2022-08-10T16:16:44.500Z,2.50
2022-08-10T16:19:25.019Z,2.17
2022-08-10T16:21:59.983Z,2.60
2022-08-10T16:24:32.721Z,2.38
2022-08-10T16:27:04.928Z,2.00
2022-08-10T16:29:55.838Z,2.10
2022-08-10T16:32:22.344Z,2.60
2022-08-10T16:34:52.068Z,2.22
2022-08-10T16:37:20.422Z,2.20
2022-08-10T16:39:57.649Z,2.40
2022-08-10T16:42:31.493Z,2.20
2022-08-10T16:45:04.635Z,2.45
2022-08-10T16:47:34.525Z,2.08
2022-08-10T16:50:08.027Z,2.20
2022-08-10T16:52:35.989Z,2.25
2022-08-10T16:55:24.344Z,2.22
2022-08-10T16:58:08.335Z,2.10
2022-08-10T17:00:36.443Z,2.20
2022-08-10T17:03:22.572Z,2.30
2022-08-10T17:06:03.438Z,2.00
2022-08-10T17:08:48.211Z,2.08
2022-08-10T17:11:18.681Z,2.30
2022-08-10T17:13:46.036Z,1.80
2022-08-10T17:16:17.018Z,2.05
2022-08-10T17:18:47.065Z,1.92
2022-08-10T17:21:20.548Z,1.88
2022-08-10T17:23:51.851Z,1.98
2022-08-10T17:26:23.965Z,2.00
2022-08-10T17:29:57.849Z,2.00
2022-08-10T17:32:20.193Z,2.00
2022-08-10T17:34:51.911Z,1.95
2022-08-10T17:37:22.591Z,1.85
2022-08-10T17:40:03.904Z,2.10
2022-08-10T17:42:31.996Z,2.00
2022-08-10T17:45:00.109Z,2.15
2022-08-10T17:47:28.012Z,2.47
2022-08-10T17:50:00.191Z,1.90
2022-08-10T17:52:31.592Z,2.13
2022-08-10T17:55:06.421Z,1.90
2022-08-10T17:57:38.331Z,2.00
2022-08-10T18:00:13.154Z,2.15
2022-08-10T18:02:43.423Z,2.00
2022-08-10T18:05:13.108Z,1.90
2022-08-10T18:07:50.595Z,2.10
2022-08-10T18:10:21.903Z,2.00
2022-08-10T18:12:54.115Z,2.10
2022-08-10T18:15:26.606Z,2.00
2022-08-10T18:18:02.736Z,2.10
2022-08-10T18:20:35.695Z,2.33
2022-08-10T18:23:03.538Z,2.10
2022-08-10T18:25:34.941Z,2.10
2022-08-10T18:28:06.088Z,2.17
2022-08-10T18:30:45.377Z,2.05
2022-08-10T18:33:14.754Z,2.20
2022-08-10T18:35:43.687Z,2.10
2022-08-10T18:38:12.738Z,2.60
2022-08-10T18:40:51.073Z,2.38
2022-08-10T18:46:11.841Z,2.25
2022-08-10T18:48:46.781Z,2.20
2022-08-10T18:51:17.910Z,2.00
2022-08-10T18:53:53.456Z,2.35
2022-08-10T18:56:29.553Z,2.28
2022-08-10T18:59:15.818Z,2.17
2022-08-10T19:02:13.666Z,1.92
2022-08-10T19:04:48.440Z,2.40
2022-08-10T19:07:54.061Z,2.15
2022-08-10T19:10:49.911Z,2.10
2022-08-10T19:13:41.604Z,2.05
2022-08-10T19:16:49.973Z,2.20
2022-08-10T19:19:47.055Z,2.20
2022-08-10T19:22:26.105Z,2.40
2022-08-10T19:25:14.164Z,2.10
2022-08-10T19:28:02.085Z,2.30
2022-08-10T19:30:56.842Z,2.13
2022-08-10T19:33:42.669Z,2.15
2022-08-10T19:36:44.228Z,2.53
2022-08-10T19:41:54.421Z,2.40
2022-08-10T19:44:52.862Z,2.38
2022-08-10T19:47:41.362Z,2.40
2022-08-10T19:50:16.071Z,2.40
2022-08-10T19:53:22.855Z,2.33
2022-08-10T19:56:33.069Z,1.95
2022-08-10T20:00:15.926Z,2.35
2022-08-10T20:02:21.208Z,2.20
2022-08-10T20:05:08.110Z,2.25
2022-08-10T20:07:51.394Z,2.38
2022-08-10T20:10:28.141Z,2.40
2022-08-10T20:12:54.968Z,2.72
2022-08-10T20:15:41.615Z,2.30
2022-08-10T20:18:35.090Z,2.17
2022-08-10T20:21:09.962Z,2.50
2022-08-10T20:23:55.634Z,2.40
2022-08-10T20:26:34.018Z,2.60
2022-08-10T20:29:58.848Z,2.80
2022-08-10T20:32:32.007Z,2.45
2022-08-10T20:35:08.873Z,2.40
2022-08-10T20:38:03.738Z,2.50
2022-08-10T20:40:49.393Z,2.50
2022-08-10T20:43:45.908Z,2.20
2022-08-10T20:46:29.741Z,2.40
2022-08-10T20:49:36.045Z,2.33
2022-08-10T20:52:03.966Z,2.58
2022-08-10T20:54:50.989Z,2.60
2022-08-10T20:57:56.206Z,2.50
2022-08-10T21:00:30.690Z,2.42
2022-08-10T21:02:57.897Z,2.30
2022-08-10T21:05:43.273Z,2.47
2022-08-10T21:09:00.095Z,2.40
2022-08-10T21:11:30.248Z,2.45
2022-08-10T21:14:24.378Z,2.30
2022-08-10T21:17:24.797Z,2.40
2022-08-10T21:20:11.426Z,2.13
2022-08-10T21:22:45.990Z,2.78
2022-08-10T21:25:41.793Z,2.10
2022-08-10T21:28:37.255Z,2.60
2022-08-10T21:31:26.054Z,2.35
2022-08-10T21:34:10.518Z,2.40
2022-08-10T21:36:46.711Z,2.47
2022-08-10T21:39:42.406Z,2.50
2022-08-10T21:42:57.063Z,2.67
2022-08-10T21:46:01.183Z,2.50
2022-08-10T21:49:03.201Z,2.33
2022-08-10T21:52:21.638Z,2.58
2022-08-10T21:55:13.597Z,2.30
2022-08-10T21:58:10.669Z,2.50
2022-08-10T22:01:01.280Z,2.50
2022-08-10T22:03:46.796Z,2.50
2022-08-10T22:06:34.372Z,2.50
2022-08-10T22:09:27.351Z,2.50
2022-08-10T22:15:42.568Z,2.58
2022-08-10T22:18:33.037Z,2.42
2022-08-10T22:21:45.357Z,2.67
2022-08-10T22:24:41.315Z,2.60
2022-08-10T22:27:56.531Z,2.70
2022-08-10T22:31:14.902Z,2.80
2022-08-10T22:34:11.188Z,2.97
2022-08-10T22:37:15.372Z,2.92
2022-08-10T22:40:14.003Z,3.00
2022-08-10T22:43:10.713Z,2.78
2022-08-10T22:46:08.943Z,2.70
2022-08-10T22:48:59.654Z,2.88
2022-08-10T22:51:39.798Z,2.80
2022-08-10T22:54:50.240Z,2.92
2022-08-10T22:57:36.201Z,2.80
2022-08-10T23:00:15.242Z,2.67
2022-08-10T23:03:02.691Z,2.90
2022-08-10T23:05:40.490Z,2.90
2022-08-10T23:08:29.586Z,2.95
2022-08-10T23:11:06.395Z,2.60
2022-08-10T23:13:42.035Z,3.00
2022-08-10T23:16:37.778Z,2.80
2022-08-10T23:19:16.537Z,2.90
2022-08-10T23:22:09.399Z,2.75
2022-08-10T23:24:52.630Z,2.75
2022-08-10T23:27:37.648Z,3.00
2022-08-10T23:30:18.049Z,3.00
2022-08-10T23:32:51.920Z,2.85
2022-08-10T23:36:30.053Z,3.10
2022-08-10T23:38:13.627Z,2.47
2022-08-10T23:40:45.308Z,3.55
2022-08-10T23:43:26.303Z,3.10
2022-08-10T23:46:05.788Z,2.97
2022-08-10T23:48:35.125Z,3.20
2022-08-10T23:53:46.337Z,3.45
2022-08-10T23:56:18.224Z,3.20
2022-08-10T23:58:48.747Z,2.90
